Proserpine, Queensland

2:03 AM AEST on August 30, 2016 (GMT +1000)
Proserpine Mill | | Change Station

Elev 43 ft 20.40 °S, 148.58 °E | Updated 11 minutes ago

Overcast
Overcast
66.4 °F
Feels Like 66.4 °F
N
4.0
Wind Variable Wind from South
Gusts 6.0 mph

Today
High -- | Low -- °F
--% Chance of Precip.
Yesterday
High -- | Low -- °F
Precip. -- in
Pressure 30.15 in
Visibility 6.2 miles
Clouds Scattered Clouds 2300 ft
Overcast 5000 ft
Dew Point 63 °F
Humidity 88%
Rainfall 0.00 in
Snow Depth Not available.
6:16 AM 5:56 PM
Waning Crescent, 8% visible
METAR YBHM 291600Z AUTO 13020KT 9999 // SCT023 OVC050 21/17 Q1021
Pressure 30.15 in
Visibility 6.2 miles
Clouds Scattered Clouds 2300 ft
Overcast 5000 ft
Dew Point 63 °F
Humidity 88%
Rainfall 0.00 in
Snow Depth Not available.
6:16 AM 5:56 PM
Waning Crescent, 8% visible
METAR YBHM 291600Z AUTO 13020KT 9999 // SCT023 OVC050 21/17 Q1021

10-Day Weather Forecast

Almanac

Astronomy

Aug. 30, 2016 Rise Set
Actual Time
Civil Twilight
Nautical Twilight
Astronomical Twilight
Moon
Length of Visible Light
Length of Day
Tomorrow will be .
, % of the Moon is Illuminated

Today's Extremes

Country Highs Country Lows

Community

WunderPhotos

Upload Photos

1,935,867 photos uploaded!

WunderBlog® & News

Nearby

Air Quality

  Air Quality AQ Index Pollutant
Not available.

Snow Depth

Station Depth Elevation

Earthquake Activity

City Distance Mag. Time & Date
Minimum magnitude displayed is 2.5.

Coastal Water Temperatures

Place Temperature

Stations

Nearby Weather Stations

Station Location Temp. Windchill Dew Point Humidity Wind Precip. Elev Updated Type